createdAt,value
2022-09-03T00:01:53.759Z,15.74
2022-09-03T00:07:02.030Z,15.69
2022-09-03T00:12:10.647Z,15.60
2022-09-03T00:17:16.999Z,15.45
2022-09-03T00:22:22.958Z,15.36
2022-09-03T00:27:28.083Z,15.32
2022-09-03T00:32:39.046Z,15.29
2022-09-03T00:37:41.942Z,15.20
2022-09-03T00:42:49.875Z,15.25
2022-09-03T00:48:07.878Z,15.26
2022-09-03T00:53:14.725Z,15.20
2022-09-03T00:58:29.759Z,15.17
2022-09-03T01:03:39.946Z,15.09
2022-09-03T01:08:53.330Z,15.02
2022-09-03T01:14:02.500Z,14.97
2022-09-03T01:19:13.386Z,14.89
2022-09-03T01:24:49.639Z,14.89
2022-09-03T01:29:57.494Z,14.91
2022-09-03T01:35:04.889Z,14.86
2022-09-03T01:40:14.702Z,14.81
2022-09-03T01:45:35.644Z,14.82
2022-09-03T01:50:45.744Z,14.87
2022-09-03T01:55:59.895Z,14.87
2022-09-03T02:01:06.904Z,14.83
2022-09-03T02:06:10.064Z,14.78
2022-09-03T02:11:13.033Z,14.82
2022-09-03T02:16:21.181Z,14.79
2022-09-03T02:21:25.984Z,14.75
2022-09-03T02:26:28.758Z,14.69
2022-09-03T02:31:32.849Z,14.64
2022-09-03T02:36:38.995Z,14.55
2022-09-03T02:41:41.878Z,14.50
2022-09-03T02:46:49.833Z,14.42
2022-09-03T02:51:52.631Z,14.40
2022-09-03T02:56:55.699Z,14.29
2022-09-03T03:02:01.270Z,14.20
2022-09-03T03:07:04.259Z,14.16
2022-09-03T03:12:07.260Z,14.06
2022-09-03T03:17:11.338Z,13.95
2022-09-03T03:22:14.247Z,13.86
2022-09-03T03:27:17.227Z,13.80
2022-09-03T03:32:21.454Z,13.78
2022-09-03T03:37:24.170Z,13.74
2022-09-03T03:42:26.881Z,13.74
2022-09-03T03:47:32.195Z,13.74
2022-09-03T03:52:35.058Z,13.74
2022-09-03T03:57:37.787Z,13.73
2022-09-03T04:02:41.898Z,13.71
2022-09-03T04:07:45.005Z,13.77
2022-09-03T04:12:47.788Z,13.77
2022-09-03T04:17:52.870Z,13.74
2022-09-03T04:22:55.622Z,13.71
2022-09-03T04:27:58.652Z,13.71
2022-09-03T04:33:03.178Z,13.67
2022-09-03T04:38:05.939Z,13.66
2022-09-03T04:43:08.741Z,13.69
2022-09-03T04:48:13.585Z,13.68
2022-09-03T04:53:16.305Z,13.68
2022-09-03T04:58:19.121Z,13.72
2022-09-03T05:03:23.578Z,13.69
2022-09-03T05:08:26.575Z,13.69
2022-09-03T05:13:29.550Z,13.76
2022-09-03T05:18:35.740Z,13.84
2022-09-03T05:23:39.966Z,13.86
2022-09-03T05:28:44.080Z,13.92
2022-09-03T05:33:49.679Z,14.04
2022-09-03T05:38:54.288Z,14.14
2022-09-03T05:43:59.434Z,14.25
2022-09-03T05:49:05.498Z,14.34
2022-09-03T05:54:09.179Z,14.44
2022-09-03T05:59:13.701Z,14.53
2022-09-03T06:04:17.891Z,14.56
2022-09-03T06:09:23.148Z,14.61
2022-09-03T06:14:26.762Z,14.61
2022-09-03T06:19:30.978Z,14.70
2022-09-03T06:24:33.890Z,14.74
2022-09-03T06:29:39.868Z,14.83
2022-09-03T06:34:44.107Z,14.87
2022-09-03T06:39:46.997Z,14.93
2022-09-03T06:44:51.318Z,15.04
2022-09-03T06:49:55.380Z,15.12
2022-09-03T06:54:58.425Z,15.19
2022-09-03T07:00:02.631Z,15.27
2022-09-03T07:05:07.747Z,15.34
2022-09-03T07:10:12.065Z,15.49
2022-09-03T07:15:15.011Z,15.59
2022-09-03T07:20:20.641Z,15.76
2022-09-03T07:25:23.524Z,15.92
2022-09-03T07:30:26.655Z,16.05
2022-09-03T07:35:30.878Z,16.19
2022-09-03T07:40:34.162Z,16.31
2022-09-03T07:45:38.533Z,16.44
2022-09-03T07:50:42.893Z,16.55
2022-09-03T07:55:45.694Z,16.70
2022-09-03T08:00:49.059Z,16.82
2022-09-03T08:05:53.322Z,16.97
2022-09-03T08:10:56.750Z,17.16
2022-09-03T08:16:01.324Z,17.27
2022-09-03T08:21:07.503Z,17.39
2022-09-03T08:26:10.669Z,17.51
2022-09-03T08:31:16.206Z,17.69
2022-09-03T08:36:22.837Z,17.85
2022-09-03T08:41:30.961Z,17.98
2022-09-03T08:46:42.737Z,18.14
2022-09-03T08:51:49.111Z,18.22
2022-09-03T08:56:52.579Z,18.29
2022-09-03T09:01:58.651Z,18.40
2022-09-03T09:07:08.251Z,18.55
2022-09-03T09:12:17.667Z,18.69
2022-09-03T09:17:32.600Z,18.74
2022-09-03T09:22:39.915Z,18.84
2022-09-03T09:27:51.630Z,18.92
2022-09-03T09:32:56.202Z,19.03
2022-09-03T09:38:00.526Z,19.15
2022-09-03T09:43:12.274Z,19.22
2022-09-03T09:48:21.176Z,19.41
2022-09-03T09:53:28.147Z,19.55
2022-09-03T09:58:33.188Z,19.70
2022-09-03T10:03:36.181Z,19.79
2022-09-03T10:08:41.722Z,19.86
2022-09-03T10:13:48.032Z,19.93
2022-09-03T10:18:56.230Z,20.09
2022-09-03T10:24:07.398Z,20.36
2022-09-03T10:29:10.522Z,20.40
2022-09-03T10:34:18.711Z,20.59
2022-09-03T10:39:24.774Z,20.77
2022-09-03T10:44:43.727Z,20.94
2022-09-03T10:49:52.000Z,20.83
2022-09-03T10:55:14.009Z,21.04
2022-09-03T11:00:18.212Z,20.98
2022-09-03T11:05:26.748Z,21.34
2022-09-03T11:10:32.398Z,21.44
2022-09-03T11:15:39.228Z,21.74
2022-09-03T11:20:43.023Z,21.82
2022-09-03T11:25:51.011Z,22.45
2022-09-03T11:31:07.019Z,23.71
2022-09-03T11:36:12.339Z,26.88
2022-09-03T11:41:26.154Z,28.54
2022-09-03T11:46:31.746Z,28.28
2022-09-03T11:51:37.818Z,27.83
2022-09-03T11:56:43.758Z,27.14
2022-09-03T12:01:53.180Z,27.35
2022-09-03T12:07:04.641Z,27.76
2022-09-03T12:12:15.921Z,28.96
2022-09-03T12:17:28.930Z,29.45
2022-09-03T12:22:32.218Z,28.16
2022-09-03T12:27:36.287Z,27.76
2022-09-03T12:32:39.357Z,27.83
2022-09-03T12:48:44.152Z,28.77
2022-09-03T12:53:47.143Z,28.47
2022-09-03T12:58:56.052Z,28.36
2022-09-03T13:04:04.809Z,28.18
2022-09-03T13:09:09.404Z,27.85
2022-09-03T13:14:14.845Z,27.62
2022-09-03T13:19:23.370Z,27.53
2022-09-03T13:24:54.405Z,27.43
2022-09-03T13:30:05.400Z,27.41
2022-09-03T13:35:11.912Z,27.56
2022-09-03T13:40:23.251Z,27.22
2022-09-03T13:45:32.377Z,27.38
2022-09-03T13:50:42.602Z,27.70
2022-09-03T13:55:48.402Z,27.65
2022-09-03T14:00:56.003Z,27.40
2022-09-03T14:06:05.679Z,26.99
2022-09-03T14:11:20.868Z,27.23
2022-09-03T14:16:32.236Z,27.24
2022-09-03T14:21:37.418Z,27.32
2022-09-03T14:26:51.288Z,27.56
2022-09-03T14:32:16.591Z,27.73
2022-09-03T14:37:35.045Z,27.77
2022-09-03T14:42:54.553Z,27.75
2022-09-03T14:48:09.122Z,27.36
2022-09-03T14:53:22.458Z,27.58
2022-09-03T14:58:37.016Z,27.70
2022-09-03T15:04:17.610Z,27.32
2022-09-03T15:09:29.101Z,27.42
2022-09-03T15:14:37.108Z,28.33
2022-09-03T15:20:07.598Z,28.09
2022-09-03T15:25:20.594Z,26.04
2022-09-03T15:30:23.636Z,26.51
2022-09-03T15:35:40.234Z,26.79
2022-09-03T15:40:51.550Z,26.45
2022-09-03T15:45:58.355Z,26.38
2022-09-03T15:51:11.061Z,25.71
2022-09-03T15:56:19.774Z,25.17
2022-09-03T16:01:30.123Z,25.36
2022-09-03T16:06:40.269Z,24.86
2022-09-03T16:11:53.685Z,24.69
2022-09-03T16:17:01.854Z,24.81
2022-09-03T16:22:12.853Z,24.20
2022-09-03T16:27:18.864Z,23.71
2022-09-03T16:32:28.768Z,23.34
2022-09-03T16:37:39.121Z,23.23
2022-09-03T16:42:46.138Z,23.01
2022-09-03T16:47:58.346Z,22.96
2022-09-03T16:53:09.946Z,22.79
2022-09-03T16:58:18.938Z,22.74
2022-09-03T17:03:45.973Z,22.63
2022-09-03T17:08:58.392Z,22.58
2022-09-03T17:14:20.702Z,22.55
2022-09-03T17:19:28.705Z,22.37
2022-09-03T17:24:38.147Z,22.18
2022-09-03T17:29:53.761Z,22.00
2022-09-03T17:35:05.495Z,21.86
2022-09-03T17:40:20.038Z,21.65
2022-09-03T17:45:34.104Z,21.48
2022-09-03T17:50:46.270Z,21.37
2022-09-03T17:55:55.728Z,21.24
2022-09-03T18:01:04.242Z,21.13
2022-09-03T18:06:10.597Z,21.02
2022-09-03T18:11:16.084Z,20.90
2022-09-03T18:16:24.265Z,20.81
2022-09-03T18:21:47.367Z,20.71
2022-09-03T18:27:17.645Z,20.57
2022-09-03T18:32:38.221Z,20.47
2022-09-03T18:37:59.218Z,20.46
2022-09-03T18:43:28.492Z,20.41
2022-09-03T18:48:53.026Z,20.27
2022-09-03T18:54:21.625Z,20.19
2022-09-03T18:59:57.815Z,20.03
2022-09-03T19:05:26.643Z,19.95
2022-09-03T19:10:54.442Z,19.87
2022-09-03T19:16:21.379Z,19.77
2022-09-03T19:21:47.360Z,19.69
2022-09-03T19:27:47.399Z,19.73
2022-09-03T19:33:04.392Z,19.71
2022-09-03T19:38:32.601Z,19.65
2022-09-03T19:43:58.810Z,19.56
2022-09-03T19:49:28.728Z,19.51
2022-09-03T19:54:50.012Z,19.46
2022-09-03T20:00:11.195Z,19.40
2022-09-03T20:05:39.484Z,19.35
2022-09-03T20:10:43.625Z,19.31
2022-09-03T20:15:53.287Z,19.32
2022-09-03T20:21:06.096Z,19.27
2022-09-03T20:26:17.092Z,19.24
2022-09-03T20:31:25.025Z,19.17
2022-09-03T20:36:35.076Z,19.05
2022-09-03T20:41:46.776Z,18.98
2022-09-03T20:46:58.227Z,18.99
2022-09-03T20:52:07.437Z,18.94
2022-09-03T20:57:24.423Z,18.89
2022-09-03T21:02:37.810Z,18.84
2022-09-03T21:07:51.764Z,18.85
2022-09-03T21:13:00.512Z,18.74
2022-09-03T21:18:08.191Z,18.63
2022-09-03T21:23:19.417Z,18.59
2022-09-03T21:28:25.126Z,18.62
2022-09-03T21:33:30.068Z,18.53
2022-09-03T21:38:35.925Z,18.56
2022-09-03T21:43:43.837Z,18.53
2022-09-03T21:48:52.183Z,18.55
2022-09-03T21:53:59.223Z,18.52
2022-09-03T21:59:09.203Z,18.51
2022-09-03T22:04:12.449Z,18.49
2022-09-03T22:09:21.057Z,18.51
2022-09-03T22:14:24.755Z,18.51
2022-09-03T22:19:28.012Z,18.48
2022-09-03T22:24:39.451Z,18.44
2022-09-03T22:29:49.207Z,18.48
2022-09-03T22:35:02.801Z,18.43
2022-09-03T22:40:13.109Z,18.43
2022-09-03T22:45:34.817Z,18.48
2022-09-03T22:50:43.769Z,18.48
2022-09-03T22:55:53.266Z,18.52
2022-09-03T23:01:00.389Z,18.52
2022-09-03T23:06:07.166Z,18.53
2022-09-03T23:11:26.259Z,18.49
2022-09-03T23:16:37.758Z,18.51
2022-09-03T23:21:42.323Z,18.51
2022-09-03T23:26:48.740Z,18.55
2022-09-03T23:31:52.814Z,18.58
2022-09-03T23:37:32.027Z,18.52
2022-09-03T23:42:42.864Z,18.46
2022-09-03T23:47:53.915Z,18.44
2022-09-03T23:53:08.926Z,18.41
2022-09-03T23:58:21.158Z,18.40
